sensor_id;sensor_type;location;lat;lon;timestamp;P1;durP1;ratioP1;P2;durP2;ratioP2
46755;SDS011;32506;52.826;-1.192;2022-09-24T00:01:23;6.07;;;2.50;;
46755;SDS011;32506;52.826;-1.192;2022-09-24T00:03:51;5.97;;;1.92;;
46755;SDS011;32506;52.826;-1.192;2022-09-24T00:06:19;4.38;;;2.13;;
46755;SDS011;32506;52.826;-1.192;2022-09-24T00:08:46;8.00;;;2.30;;
46755;SDS011;32506;52.826;-1.192;2022-09-24T00:11:13;8.50;;;2.20;;
46755;SDS011;32506;52.826;-1.192;2022-09-24T00:13:39;4.95;;;1.70;;
46755;SDS011;32506;52.826;-1.192;2022-09-24T00:16:06;5.30;;;1.85;;
46755;SDS011;32506;52.826;-1.192;2022-09-24T00:18:35;5.78;;;1.90;;
46755;SDS011;32506;52.826;-1.192;2022-09-24T00:21:09;5.70;;;1.92;;
46755;SDS011;32506;52.826;-1.192;2022-09-24T00:23:48;4.95;;;2.30;;
46755;SDS011;32506;52.826;-1.192;2022-09-24T00:26:15;4.72;;;1.80;;
46755;SDS011;32506;52.826;-1.192;2022-09-24T00:28:59;6.13;;;2.80;;
46755;SDS011;32506;52.826;-1.192;2022-09-24T00:31:25;5.15;;;2.85;;
46755;SDS011;32506;52.826;-1.192;2022-09-24T00:33:51;4.22;;;1.65;;
46755;SDS011;32506;52.826;-1.192;2022-09-24T00:36:19;3.60;;;1.80;;
46755;SDS011;32506;52.826;-1.192;2022-09-24T00:38:49;7.07;;;2.05;;
46755;SDS011;32506;52.826;-1.192;2022-09-24T00:41:21;5.22;;;1.85;;
46755;SDS011;32506;52.826;-1.192;2022-09-24T00:43:49;4.50;;;1.77;;
46755;SDS011;32506;52.826;-1.192;2022-09-24T00:46:20;6.63;;;2.55;;
46755;SDS011;32506;52.826;-1.192;2022-09-24T00:48:57;6.53;;;1.70;;
46755;SDS011;32506;52.826;-1.192;2022-09-24T00:51:26;3.38;;;1.80;;
46755;SDS011;32506;52.826;-1.192;2022-09-24T00:53:56;5.40;;;2.17;;
46755;SDS011;32506;52.826;-1.192;2022-09-24T00:56:31;4.93;;;2.00;;
46755;SDS011;32506;52.826;-1.192;2022-09-24T00:59:00;5.63;;;1.80;;
46755;SDS011;32506;52.826;-1.192;2022-09-24T01:01:27;5.07;;;1.95;;
46755;SDS011;32506;52.826;-1.192;2022-09-24T01:03:56;3.83;;;1.73;;
46755;SDS011;32506;52.826;-1.192;2022-09-24T01:06:26;3.28;;;1.65;;
46755;SDS011;32506;52.826;-1.192;2022-09-24T01:08:52;4.38;;;1.90;;
46755;SDS011;32506;52.826;-1.192;2022-09-24T01:11:23;7.28;;;1.77;;
46755;SDS011;32506;52.826;-1.192;2022-09-24T01:14:12;5.72;;;1.90;;
46755;SDS011;32506;52.826;-1.192;2022-09-24T01:16:49;7.70;;;2.00;;
46755;SDS011;32506;52.826;-1.192;2022-09-24T01:19:47;4.93;;;1.83;;
46755;SDS011;32506;52.826;-1.192;2022-09-24T01:30:43;8.13;;;1.90;;
46755;SDS011;32506;52.826;-1.192;2022-09-24T01:33:12;5.55;;;2.47;;
46755;SDS011;32506;52.826;-1.192;2022-09-24T01:35:46;4.32;;;2.03;;
46755;SDS011;32506;52.826;-1.192;2022-09-24T01:38:17;7.65;;;1.98;;
46755;SDS011;32506;52.826;-1.192;2022-09-24T01:40:45;6.68;;;2.00;;
46755;SDS011;32506;52.826;-1.192;2022-09-24T01:43:13;9.23;;;2.55;;
46755;SDS011;32506;52.826;-1.192;2022-09-24T01:45:41;6.90;;;2.05;;
46755;SDS011;32506;52.826;-1.192;2022-09-24T01:48:07;5.65;;;1.88;;
46755;SDS011;32506;52.826;-1.192;2022-09-24T01:50:56;5.38;;;1.90;;
46755;SDS011;32506;52.826;-1.192;2022-09-24T01:53:25;4.70;;;1.98;;
46755;SDS011;32506;52.826;-1.192;2022-09-24T01:56:01;5.20;;;1.85;;
46755;SDS011;32506;52.826;-1.192;2022-09-24T01:58:34;5.53;;;2.20;;
46755;SDS011;32506;52.826;-1.192;2022-09-24T02:03:33;4.82;;;1.77;;
46755;SDS011;32506;52.826;-1.192;2022-09-24T02:06:41;4.88;;;1.80;;
46755;SDS011;32506;52.826;-1.192;2022-09-24T02:09:02;5.30;;;2.03;;
46755;SDS011;32506;52.826;-1.192;2022-09-24T02:11:28;4.45;;;2.15;;
46755;SDS011;32506;52.826;-1.192;2022-09-24T02:14:15;5.72;;;2.20;;
46755;SDS011;32506;52.826;-1.192;2022-09-24T02:16:47;4.85;;;2.10;;
46755;SDS011;32506;52.826;-1.192;2022-09-24T02:19:16;7.40;;;2.08;;
46755;SDS011;32506;52.826;-1.192;2022-09-24T02:21:46;4.68;;;2.15;;
46755;SDS011;32506;52.826;-1.192;2022-09-24T02:24:19;6.55;;;2.00;;
46755;SDS011;32506;52.826;-1.192;2022-09-24T02:26:48;6.13;;;2.00;;
46755;SDS011;32506;52.826;-1.192;2022-09-24T02:29:14;5.70;;;2.33;;
46755;SDS011;32506;52.826;-1.192;2022-09-24T02:31:43;5.07;;;2.15;;
46755;SDS011;32506;52.826;-1.192;2022-09-24T02:34:18;4.93;;;2.90;;
46755;SDS011;32506;52.826;-1.192;2022-09-24T02:36:51;3.97;;;2.17;;
46755;SDS011;32506;52.826;-1.192;2022-09-24T02:39:19;3.75;;;1.92;;
46755;SDS011;32506;52.826;-1.192;2022-09-24T02:41:45;7.28;;;2.38;;
46755;SDS011;32506;52.826;-1.192;2022-09-24T02:44:15;7.47;;;2.35;;
46755;SDS011;32506;52.826;-1.192;2022-09-24T02:46:42;6.00;;;2.28;;
46755;SDS011;32506;52.826;-1.192;2022-09-24T02:49:08;6.05;;;2.60;;
46755;SDS011;32506;52.826;-1.192;2022-09-24T02:51:34;6.18;;;2.28;;
46755;SDS011;32506;52.826;-1.192;2022-09-24T02:54:00;6.18;;;2.65;;
46755;SDS011;32506;52.826;-1.192;2022-09-24T02:56:26;5.95;;;2.60;;
46755;SDS011;32506;52.826;-1.192;2022-09-24T02:58:52;5.53;;;2.28;;
46755;SDS011;32506;52.826;-1.192;2022-09-24T03:01:18;5.30;;;2.15;;
46755;SDS011;32506;52.826;-1.192;2022-09-24T03:03:44;7.90;;;2.88;;
46755;SDS011;32506;52.826;-1.192;2022-09-24T03:06:10;7.20;;;3.13;;
46755;SDS011;32506;52.826;-1.192;2022-09-24T03:08:37;7.05;;;3.78;;
46755;SDS011;32506;52.826;-1.192;2022-09-24T03:11:03;5.47;;;2.92;;
46755;SDS011;32506;52.826;-1.192;2022-09-24T03:13:29;5.35;;;3.20;;
46755;SDS011;32506;52.826;-1.192;2022-09-24T03:15:54;4.38;;;2.47;;
46755;SDS011;32506;52.826;-1.192;2022-09-24T03:18:20;4.85;;;2.83;;
46755;SDS011;32506;52.826;-1.192;2022-09-24T03:20:55;5.88;;;2.47;;
46755;SDS011;32506;52.826;-1.192;2022-09-24T03:23:21;5.47;;;2.50;;
46755;SDS011;32506;52.826;-1.192;2022-09-24T03:25:46;4.85;;;2.47;;
46755;SDS011;32506;52.826;-1.192;2022-09-24T03:28:11;6.22;;;2.65;;
46755;SDS011;32506;52.826;-1.192;2022-09-24T03:30:37;6.55;;;2.90;;
46755;SDS011;32506;52.826;-1.192;2022-09-24T03:33:23;8.35;;;2.88;;
46755;SDS011;32506;52.826;-1.192;2022-09-24T03:35:49;9.40;;;2.65;;
46755;SDS011;32506;52.826;-1.192;2022-09-24T03:38:18;7.03;;;3.13;;
46755;SDS011;32506;52.826;-1.192;2022-09-24T03:40:44;5.22;;;2.58;;
46755;SDS011;32506;52.826;-1.192;2022-09-24T03:43:09;5.93;;;2.70;;
46755;SDS011;32506;52.826;-1.192;2022-09-24T03:45:35;7.32;;;3.13;;
46755;SDS011;32506;52.826;-1.192;2022-09-24T03:48:01;5.18;;;2.72;;
46755;SDS011;32506;52.826;-1.192;2022-09-24T03:50:27;5.15;;;2.90;;
46755;SDS011;32506;52.826;-1.192;2022-09-24T03:52:52;6.03;;;2.88;;
46755;SDS011;32506;52.826;-1.192;2022-09-24T03:55:18;7.20;;;3.25;;
46755;SDS011;32506;52.826;-1.192;2022-09-24T03:57:43;6.60;;;3.45;;
46755;SDS011;32506;52.826;-1.192;2022-09-24T04:00:09;5.47;;;2.95;;
46755;SDS011;32506;52.826;-1.192;2022-09-24T04:02:35;7.25;;;3.10;;
46755;SDS011;32506;52.826;-1.192;2022-09-24T04:05:00;5.18;;;2.85;;
46755;SDS011;32506;52.826;-1.192;2022-09-24T04:07:26;7.18;;;3.03;;
46755;SDS011;32506;52.826;-1.192;2022-09-24T04:09:51;7.40;;;3.13;;
46755;SDS011;32506;52.826;-1.192;2022-09-24T04:12:17;8.27;;;3.10;;
46755;SDS011;32506;52.826;-1.192;2022-09-24T04:14:42;6.18;;;2.90;;
46755;SDS011;32506;52.826;-1.192;2022-09-24T04:17:08;7.00;;;3.40;;
46755;SDS011;32506;52.826;-1.192;2022-09-24T04:19:34;5.07;;;2.65;;
46755;SDS011;32506;52.826;-1.192;2022-09-24T04:21:59;5.43;;;3.03;;
46755;SDS011;32506;52.826;-1.192;2022-09-24T04:24:25;5.22;;;3.35;;
46755;SDS011;32506;52.826;-1.192;2022-09-24T04:26:50;5.63;;;3.05;;
46755;SDS011;32506;52.826;-1.192;2022-09-24T04:29:16;5.05;;;3.00;;
46755;SDS011;32506;52.826;-1.192;2022-09-24T04:31:42;5.18;;;3.00;;
46755;SDS011;32506;52.826;-1.192;2022-09-24T04:34:08;6.25;;;3.05;;
46755;SDS011;32506;52.826;-1.192;2022-09-24T04:36:34;5.95;;;2.60;;
46755;SDS011;32506;52.826;-1.192;2022-09-24T04:38:59;6.40;;;2.88;;
46755;SDS011;32506;52.826;-1.192;2022-09-24T04:41:25;7.70;;;3.05;;
46755;SDS011;32506;52.826;-1.192;2022-09-24T04:43:50;7.38;;;2.92;;
46755;SDS011;32506;52.826;-1.192;2022-09-24T04:46:16;6.43;;;2.90;;
46755;SDS011;32506;52.826;-1.192;2022-09-24T04:48:43;10.45;;;3.60;;
46755;SDS011;32506;52.826;-1.192;2022-09-24T04:51:08;5.68;;;2.90;;
46755;SDS011;32506;52.826;-1.192;2022-09-24T04:53:34;5.43;;;2.60;;
46755;SDS011;32506;52.826;-1.192;2022-09-24T04:56:04;6.68;;;2.55;;
46755;SDS011;32506;52.826;-1.192;2022-09-24T04:58:35;7.38;;;2.78;;
46755;SDS011;32506;52.826;-1.192;2022-09-24T05:01:01;6.15;;;2.80;;
46755;SDS011;32506;52.826;-1.192;2022-09-24T05:03:28;3.30;;;2.47;;
46755;SDS011;32506;52.826;-1.192;2022-09-24T05:05:53;5.85;;;2.63;;
46755;SDS011;32506;52.826;-1.192;2022-09-24T05:08:19;7.75;;;2.83;;
46755;SDS011;32506;52.826;-1.192;2022-09-24T05:10:44;5.47;;;2.42;;
46755;SDS011;32506;52.826;-1.192;2022-09-24T05:13:10;4.90;;;2.55;;
46755;SDS011;32506;52.826;-1.192;2022-09-24T05:15:35;6.25;;;3.53;;
46755;SDS011;32506;52.826;-1.192;2022-09-24T05:18:01;4.88;;;2.70;;
46755;SDS011;32506;52.826;-1.192;2022-09-24T05:20:26;5.20;;;2.30;;
46755;SDS011;32506;52.826;-1.192;2022-09-24T05:22:52;4.30;;;2.67;;
46755;SDS011;32506;52.826;-1.192;2022-09-24T05:25:18;6.47;;;2.90;;
46755;SDS011;32506;52.826;-1.192;2022-09-24T05:27:49;7.20;;;2.78;;
46755;SDS011;32506;52.826;-1.192;2022-09-24T05:30:16;6.43;;;3.05;;
46755;SDS011;32506;52.826;-1.192;2022-09-24T05:32:43;6.80;;;2.60;;
46755;SDS011;32506;52.826;-1.192;2022-09-24T05:35:08;5.32;;;2.80;;
46755;SDS011;32506;52.826;-1.192;2022-09-24T05:37:35;6.72;;;2.30;;
46755;SDS011;32506;52.826;-1.192;2022-09-24T05:40:02;5.32;;;2.88;;
46755;SDS011;32506;52.826;-1.192;2022-09-24T05:42:48;10.88;;;3.08;;
46755;SDS011;32506;52.826;-1.192;2022-09-24T05:45:14;4.32;;;2.60;;
46755;SDS011;32506;52.826;-1.192;2022-09-24T05:47:41;7.50;;;2.97;;
46755;SDS011;32506;52.826;-1.192;2022-09-24T05:50:07;6.97;;;3.63;;
46755;SDS011;32506;52.826;-1.192;2022-09-24T05:52:33;4.82;;;2.30;;
46755;SDS011;32506;52.826;-1.192;2022-09-24T05:54:58;6.47;;;2.63;;
46755;SDS011;32506;52.826;-1.192;2022-09-24T05:57:24;5.38;;;2.20;;
46755;SDS011;32506;52.826;-1.192;2022-09-24T05:59:49;3.40;;;2.30;;
46755;SDS011;32506;52.826;-1.192;2022-09-24T06:02:15;3.95;;;2.05;;
46755;SDS011;32506;52.826;-1.192;2022-09-24T06:04:40;4.80;;;2.63;;
46755;SDS011;32506;52.826;-1.192;2022-09-24T06:07:05;7.20;;;2.67;;
46755;SDS011;32506;52.826;-1.192;2022-09-24T06:09:31;5.35;;;2.25;;
46755;SDS011;32506;52.826;-1.192;2022-09-24T06:11:56;4.60;;;2.00;;
46755;SDS011;32506;52.826;-1.192;2022-09-24T06:14:22;6.45;;;2.22;;
46755;SDS011;32506;52.826;-1.192;2022-09-24T06:16:47;5.28;;;2.45;;
46755;SDS011;32506;52.826;-1.192;2022-09-24T06:19:12;3.75;;;2.15;;
46755;SDS011;32506;52.826;-1.192;2022-09-24T06:21:38;6.32;;;1.92;;
46755;SDS011;32506;52.826;-1.192;2022-09-24T06:24:03;4.53;;;2.35;;
46755;SDS011;32506;52.826;-1.192;2022-09-24T06:26:29;5.72;;;1.80;;
46755;SDS011;32506;52.826;-1.192;2022-09-24T06:28:55;6.30;;;1.92;;
46755;SDS011;32506;52.826;-1.192;2022-09-24T06:31:20;5.20;;;2.10;;
46755;SDS011;32506;52.826;-1.192;2022-09-24T06:33:46;3.65;;;1.55;;
46755;SDS011;32506;52.826;-1.192;2022-09-24T06:36:11;5.63;;;2.13;;
46755;SDS011;32506;52.826;-1.192;2022-09-24T06:38:36;5.72;;;2.28;;
46755;SDS011;32506;52.826;-1.192;2022-09-24T06:41:04;5.07;;;2.40;;
46755;SDS011;32506;52.826;-1.192;2022-09-24T06:43:30;3.85;;;1.83;;
46755;SDS011;32506;52.826;-1.192;2022-09-24T06:45:57;4.78;;;1.92;;
46755;SDS011;32506;52.826;-1.192;2022-09-24T06:48:24;5.28;;;2.05;;
46755;SDS011;32506;52.826;-1.192;2022-09-24T06:50:50;6.97;;;2.10;;
46755;SDS011;32506;52.826;-1.192;2022-09-24T06:53:17;5.00;;;2.13;;
46755;SDS011;32506;52.826;-1.192;2022-09-24T06:55:42;2.53;;;1.70;;
46755;SDS011;32506;52.826;-1.192;2022-09-24T06:58:12;6.18;;;2.03;;
46755;SDS011;32506;52.826;-1.192;2022-09-24T07:00:40;5.13;;;2.07;;
46755;SDS011;32506;52.826;-1.192;2022-09-24T07:03:08;4.03;;;1.90;;
46755;SDS011;32506;52.826;-1.192;2022-09-24T07:05:38;4.65;;;2.20;;
46755;SDS011;32506;52.826;-1.192;2022-09-24T07:08:03;3.67;;;1.73;;
46755;SDS011;32506;52.826;-1.192;2022-09-24T07:10:28;5.60;;;1.73;;
46755;SDS011;32506;52.826;-1.192;2022-09-24T07:12:55;4.63;;;1.58;;
46755;SDS011;32506;52.826;-1.192;2022-09-24T07:15:20;4.45;;;1.58;;
46755;SDS011;32506;52.826;-1.192;2022-09-24T07:17:45;3.83;;;1.65;;
46755;SDS011;32506;52.826;-1.192;2022-09-24T07:20:11;6.07;;;1.60;;
46755;SDS011;32506;52.826;-1.192;2022-09-24T07:22:40;4.22;;;1.90;;
46755;SDS011;32506;52.826;-1.192;2022-09-24T07:25:08;2.85;;;1.48;;
46755;SDS011;32506;52.826;-1.192;2022-09-24T07:27:35;4.15;;;2.13;;
46755;SDS011;32506;52.826;-1.192;2022-09-24T07:30:02;2.80;;;1.40;;
46755;SDS011;32506;52.826;-1.192;2022-09-24T07:32:30;7.38;;;2.00;;
46755;SDS011;32506;52.826;-1.192;2022-09-24T07:34:55;5.28;;;1.95;;
46755;SDS011;32506;52.826;-1.192;2022-09-24T07:37:21;5.88;;;1.83;;
46755;SDS011;32506;52.826;-1.192;2022-09-24T07:39:46;3.22;;;1.50;;
46755;SDS011;32506;52.826;-1.192;2022-09-24T07:42:11;5.32;;;1.73;;
46755;SDS011;32506;52.826;-1.192;2022-09-24T07:44:37;3.33;;;1.70;;
46755;SDS011;32506;52.826;-1.192;2022-09-24T07:47:02;4.22;;;1.70;;
46755;SDS011;32506;52.826;-1.192;2022-09-24T07:49:28;4.10;;;1.55;;
46755;SDS011;32506;52.826;-1.192;2022-09-24T07:51:56;3.30;;;1.30;;
46755;SDS011;32506;52.826;-1.192;2022-09-24T07:54:22;3.47;;;1.33;;
46755;SDS011;32506;52.826;-1.192;2022-09-24T07:56:47;7.40;;;1.60;;
46755;SDS011;32506;52.826;-1.192;2022-09-24T07:59:13;4.63;;;1.80;;
46755;SDS011;32506;52.826;-1.192;2022-09-24T08:01:38;4.65;;;1.63;;
46755;SDS011;32506;52.826;-1.192;2022-09-24T08:04:04;5.22;;;1.65;;
46755;SDS011;32506;52.826;-1.192;2022-09-24T08:06:32;5.32;;;1.45;;
46755;SDS011;32506;52.826;-1.192;2022-09-24T08:08:59;5.03;;;1.30;;
46755;SDS011;32506;52.826;-1.192;2022-09-24T08:11:25;6.03;;;1.52;;
46755;SDS011;32506;52.826;-1.192;2022-09-24T08:13:50;5.45;;;1.10;;
46755;SDS011;32506;52.826;-1.192;2022-09-24T08:16:16;3.22;;;1.10;;
46755;SDS011;32506;52.826;-1.192;2022-09-24T08:18:43;4.72;;;1.10;;
46755;SDS011;32506;52.826;-1.192;2022-09-24T08:21:09;3.78;;;1.00;;
46755;SDS011;32506;52.826;-1.192;2022-09-24T08:23:38;5.82;;;1.13;;
46755;SDS011;32506;52.826;-1.192;2022-09-24T08:26:04;7.05;;;1.20;;
46755;SDS011;32506;52.826;-1.192;2022-09-24T08:28:31;5.07;;;1.20;;
46755;SDS011;32506;52.826;-1.192;2022-09-24T08:30:57;3.60;;;1.20;;
46755;SDS011;32506;52.826;-1.192;2022-09-24T08:33:24;6.22;;;1.25;;
46755;SDS011;32506;52.826;-1.192;2022-09-24T08:35:50;2.05;;;0.93;;
46755;SDS011;32506;52.826;-1.192;2022-09-24T08:38:15;6.47;;;1.60;;
46755;SDS011;32506;52.826;-1.192;2022-09-24T08:40:44;4.18;;;0.95;;
46755;SDS011;32506;52.826;-1.192;2022-09-24T08:46:19;5.47;;;1.67;;
46755;SDS011;32506;52.826;-1.192;2022-09-24T08:49:09;2.67;;;0.88;;
46755;SDS011;32506;52.826;-1.192;2022-09-24T08:52:00;4.70;;;1.45;;
46755;SDS011;32506;52.826;-1.192;2022-09-24T08:57:02;5.65;;;1.25;;
46755;SDS011;32506;52.826;-1.192;2022-09-24T08:59:35;4.80;;;1.30;;
46755;SDS011;32506;52.826;-1.192;2022-09-24T09:05:31;6.55;;;1.70;;
46755;SDS011;32506;52.826;-1.192;2022-09-24T09:07:59;6.28;;;1.90;;
46755;SDS011;32506;52.826;-1.192;2022-09-24T09:10:28;5.75;;;1.73;;
46755;SDS011;32506;52.826;-1.192;2022-09-24T09:13:22;9.15;;;1.80;;
46755;SDS011;32506;52.826;-1.192;2022-09-24T09:16:03;8.13;;;1.70;;
46755;SDS011;32506;52.826;-1.192;2022-09-24T09:18:39;4.65;;;1.48;;
46755;SDS011;32506;52.826;-1.192;2022-09-24T09:23:49;6.65;;;1.60;;
46755;SDS011;32506;52.826;-1.192;2022-09-24T09:26:17;5.03;;;1.50;;
46755;SDS011;32506;52.826;-1.192;2022-09-24T09:28:44;3.92;;;1.23;;
46755;SDS011;32506;52.826;-1.192;2022-09-24T09:37:05;2.60;;;1.50;;
46755;SDS011;32506;52.826;-1.192;2022-09-24T09:39:34;3.15;;;1.30;;
46755;SDS011;32506;52.826;-1.192;2022-09-24T09:42:25;4.70;;;1.00;;
46755;SDS011;32506;52.826;-1.192;2022-09-24T09:45:00;4.68;;;1.45;;
46755;SDS011;32506;52.826;-1.192;2022-09-24T09:47:38;4.47;;;1.60;;
46755;SDS011;32506;52.826;-1.192;2022-09-24T09:52:52;2.97;;;1.27;;
46755;SDS011;32506;52.826;-1.192;2022-09-24T09:55:23;8.55;;;1.70;;
46755;SDS011;32506;52.826;-1.192;2022-09-24T09:57:51;8.40;;;1.48;;
46755;SDS011;32506;52.826;-1.192;2022-09-24T10:00:24;5.35;;;1.20;;
46755;SDS011;32506;52.826;-1.192;2022-09-24T10:02:59;9.57;;;1.60;;
46755;SDS011;32506;52.826;-1.192;2022-09-24T10:05:25;3.47;;;1.02;;
46755;SDS011;32506;52.826;-1.192;2022-09-24T10:07:55;7.25;;;1.33;;
46755;SDS011;32506;52.826;-1.192;2022-09-24T10:10:22;3.65;;;1.50;;
46755;SDS011;32506;52.826;-1.192;2022-09-24T10:13:06;3.72;;;1.10;;
46755;SDS011;32506;52.826;-1.192;2022-09-24T10:15:33;5.43;;;1.20;;
46755;SDS011;32506;52.826;-1.192;2022-09-24T10:18:03;4.60;;;1.42;;
46755;SDS011;32506;52.826;-1.192;2022-09-24T10:20:30;4.03;;;1.15;;
46755;SDS011;32506;52.826;-1.192;2022-09-24T10:23:04;6.38;;;1.20;;
46755;SDS011;32506;52.826;-1.192;2022-09-24T10:25:37;7.30;;;1.30;;
46755;SDS011;32506;52.826;-1.192;2022-09-24T10:28:06;4.38;;;1.05;;
46755;SDS011;32506;52.826;-1.192;2022-09-24T10:31:02;3.47;;;0.75;;
46755;SDS011;32506;52.826;-1.192;2022-09-24T10:33:38;5.38;;;1.10;;
46755;SDS011;32506;52.826;-1.192;2022-09-24T10:36:13;3.60;;;0.93;;
46755;SDS011;32506;52.826;-1.192;2022-09-24T10:39:02;4.78;;;0.93;;
46755;SDS011;32506;52.826;-1.192;2022-09-24T10:41:34;8.00;;;1.67;;
46755;SDS011;32506;52.826;-1.192;2022-09-24T10:44:08;1.40;;;0.60;;
46755;SDS011;32506;52.826;-1.192;2022-09-24T11:06:00;8.73;;;0.80;;
46755;SDS011;32506;52.826;-1.192;2022-09-24T11:11:40;2.15;;;0.43;;
46755;SDS011;32506;52.826;-1.192;2022-09-24T11:14:15;4.75;;;0.77;;
46755;SDS011;32506;52.826;-1.192;2022-09-24T11:22:38;3.72;;;1.00;;
46755;SDS011;32506;52.826;-1.192;2022-09-24T11:31:29;3.75;;;1.10;;
46755;SDS011;32506;52.826;-1.192;2022-09-24T11:40:16;3.35;;;0.60;;
46755;SDS011;32506;52.826;-1.192;2022-09-24T11:42:49;3.70;;;0.77;;
46755;SDS011;32506;52.826;-1.192;2022-09-24T11:50:54;2.20;;;0.60;;
46755;SDS011;32506;52.826;-1.192;2022-09-24T11:58:59;3.28;;;0.70;;
46755;SDS011;32506;52.826;-1.192;2022-09-24T12:01:38;6.38;;;1.45;;
46755;SDS011;32506;52.826;-1.192;2022-09-24T12:04:15;4.47;;;0.75;;
46755;SDS011;32506;52.826;-1.192;2022-09-24T12:06:47;2.15;;;0.82;;
46755;SDS011;32506;52.826;-1.192;2022-09-24T12:14:50;2.50;;;0.70;;
46755;SDS011;32506;52.826;-1.192;2022-09-24T12:17:20;4.07;;;0.85;;
46755;SDS011;32506;52.826;-1.192;2022-09-24T12:20:07;2.00;;;0.60;;
46755;SDS011;32506;52.826;-1.192;2022-09-24T12:22:42;4.47;;;0.70;;
46755;SDS011;32506;52.826;-1.192;2022-09-24T12:25:10;2.78;;;0.40;;
46755;SDS011;32506;52.826;-1.192;2022-09-24T12:27:37;6.43;;;0.50;;
46755;SDS011;32506;52.826;-1.192;2022-09-24T12:30:04;2.97;;;0.50;;
46755;SDS011;32506;52.826;-1.192;2022-09-24T12:38:31;3.25;;;0.50;;
46755;SDS011;32506;52.826;-1.192;2022-09-24T12:46:49;2.92;;;0.60;;
46755;SDS011;32506;52.826;-1.192;2022-09-24T12:49:22;4.15;;;0.50;;
46755;SDS011;32506;52.826;-1.192;2022-09-24T12:51:53;2.20;;;0.43;;
46755;SDS011;32506;52.826;-1.192;2022-09-24T12:54:34;3.17;;;0.63;;
46755;SDS011;32506;52.826;-1.192;2022-09-24T12:57:05;3.78;;;0.60;;
46755;SDS011;32506;52.826;-1.192;2022-09-24T13:00:00;5.13;;;1.02;;
46755;SDS011;32506;52.826;-1.192;2022-09-24T13:07:56;2.88;;;0.32;;
46755;SDS011;32506;52.826;-1.192;2022-09-24T13:10:27;1.92;;;0.38;;
46755;SDS011;32506;52.826;-1.192;2022-09-24T13:12:55;1.67;;;0.40;;
46755;SDS011;32506;52.826;-1.192;2022-09-24T13:15:31;1.15;;;0.30;;
46755;SDS011;32506;52.826;-1.192;2022-09-24T13:20:35;1.60;;;0.32;;
46755;SDS011;32506;52.826;-1.192;2022-09-24T13:23:28;2.75;;;0.30;;
46755;SDS011;32506;52.826;-1.192;2022-09-24T13:26:04;1.73;;;0.38;;
46755;SDS011;32506;52.826;-1.192;2022-09-24T13:28:32;1.38;;;0.30;;
46755;SDS011;32506;52.826;-1.192;2022-09-24T13:33:47;2.10;;;0.50;;
46755;SDS011;32506;52.826;-1.192;2022-09-24T13:44:30;0.70;;;0.32;;
46755;SDS011;32506;52.826;-1.192;2022-09-24T13:47:13;1.13;;;0.20;;
46755;SDS011;32506;52.826;-1.192;2022-09-24T13:49:40;2.97;;;0.50;;
46755;SDS011;32506;52.826;-1.192;2022-09-24T13:52:15;3.10;;;0.40;;
46755;SDS011;32506;52.826;-1.192;2022-09-24T13:55:04;1.27;;;0.33;;
46755;SDS011;32506;52.826;-1.192;2022-09-24T13:57:46;6.07;;;0.70;;
46755;SDS011;32506;52.826;-1.192;2022-09-24T14:00:13;3.22;;;0.50;;
46755;SDS011;32506;52.826;-1.192;2022-09-24T14:02:52;1.90;;;0.22;;
46755;SDS011;32506;52.826;-1.192;2022-09-24T14:05:18;4.05;;;0.70;;
46755;SDS011;32506;52.826;-1.192;2022-09-24T14:07:54;3.50;;;0.65;;
46755;SDS011;32506;52.826;-1.192;2022-09-24T14:10:23;2.88;;;0.50;;
46755;SDS011;32506;52.826;-1.192;2022-09-24T14:15:32;2.03;;;0.57;;
46755;SDS011;32506;52.826;-1.192;2022-09-24T14:18:00;0.68;;;0.22;;
46755;SDS011;32506;52.826;-1.192;2022-09-24T14:20:26;2.13;;;0.40;;
46755;SDS011;32506;52.826;-1.192;2022-09-24T14:22:57;2.70;;;0.40;;
46755;SDS011;32506;52.826;-1.192;2022-09-24T14:25:27;2.45;;;0.40;;
46755;SDS011;32506;52.826;-1.192;2022-09-24T14:27:54;2.50;;;0.50;;
46755;SDS011;32506;52.826;-1.192;2022-09-24T14:30:25;1.85;;;0.43;;
46755;SDS011;32506;52.826;-1.192;2022-09-24T14:33:11;2.70;;;0.60;;
46755;SDS011;32506;52.826;-1.192;2022-09-24T14:35:44;3.97;;;0.60;;
46755;SDS011;32506;52.826;-1.192;2022-09-24T14:38:13;2.28;;;0.40;;
46755;SDS011;32506;52.826;-1.192;2022-09-24T14:40:44;0.88;;;0.20;;
46755;SDS011;32506;52.826;-1.192;2022-09-24T14:43:17;0.90;;;0.30;;
46755;SDS011;32506;52.826;-1.192;2022-09-24T14:45:49;1.55;;;0.45;;
46755;SDS011;32506;52.826;-1.192;2022-09-24T14:48:30;4.40;;;0.57;;
46755;SDS011;32506;52.826;-1.192;2022-09-24T14:50:56;3.53;;;0.38;;
46755;SDS011;32506;52.826;-1.192;2022-09-24T14:53:26;1.38;;;0.55;;
46755;SDS011;32506;52.826;-1.192;2022-09-24T14:55:54;3.53;;;0.45;;
46755;SDS011;32506;52.826;-1.192;2022-09-24T14:58:30;4.72;;;0.88;;
46755;SDS011;32506;52.826;-1.192;2022-09-24T15:01:16;1.50;;;0.22;;
46755;SDS011;32506;52.826;-1.192;2022-09-24T15:08:42;2.85;;;0.40;;
46755;SDS011;32506;52.826;-1.192;2022-09-24T15:11:13;2.35;;;0.40;;
46755;SDS011;32506;52.826;-1.192;2022-09-24T15:13:43;1.63;;;0.40;;
46755;SDS011;32506;52.826;-1.192;2022-09-24T15:16:19;3.45;;;0.38;;
46755;SDS011;32506;52.826;-1.192;2022-09-24T15:21:23;1.25;;;0.50;;
46755;SDS011;32506;52.826;-1.192;2022-09-24T15:23:49;0.90;;;0.30;;
46755;SDS011;32506;52.826;-1.192;2022-09-24T15:26:14;1.50;;;0.55;;
46755;SDS011;32506;52.826;-1.192;2022-09-24T15:28:40;1.08;;;0.50;;
46755;SDS011;32506;52.826;-1.192;2022-09-24T15:31:05;1.77;;;0.40;;
46755;SDS011;32506;52.826;-1.192;2022-09-24T15:33:31;1.02;;;0.20;;
46755;SDS011;32506;52.826;-1.192;2022-09-24T15:35:56;2.17;;;0.40;;
46755;SDS011;32506;52.826;-1.192;2022-09-24T15:38:22;0.55;;;0.20;;
46755;SDS011;32506;52.826;-1.192;2022-09-24T15:40:47;1.75;;;0.30;;
46755;SDS011;32506;52.826;-1.192;2022-09-24T15:43:22;0.68;;;0.30;;
46755;SDS011;32506;52.826;-1.192;2022-09-24T15:45:50;2.45;;;0.30;;
46755;SDS011;32506;52.826;-1.192;2022-09-24T15:48:16;4.05;;;0.30;;
46755;SDS011;32506;52.826;-1.192;2022-09-24T15:50:42;0.68;;;0.17;;
46755;SDS011;32506;52.826;-1.192;2022-09-24T15:53:16;3.15;;;0.40;;
46755;SDS011;32506;52.826;-1.192;2022-09-24T15:55:46;0.73;;;0.10;;
46755;SDS011;32506;52.826;-1.192;2022-09-24T15:58:14;1.20;;;0.25;;
46755;SDS011;32506;52.826;-1.192;2022-09-24T16:00:40;3.95;;;0.20;;
46755;SDS011;32506;52.826;-1.192;2022-09-24T16:03:08;1.95;;;0.30;;
46755;SDS011;32506;52.826;-1.192;2022-09-24T16:05:41;2.95;;;0.47;;
46755;SDS011;32506;52.826;-1.192;2022-09-24T16:08:06;1.00;;;0.20;;
46755;SDS011;32506;52.826;-1.192;2022-09-24T16:10:31;1.75;;;0.28;;
46755;SDS011;32506;52.826;-1.192;2022-09-24T16:12:57;1.25;;;0.20;;
46755;SDS011;32506;52.826;-1.192;2022-09-24T16:15:22;3.00;;;0.32;;
46755;SDS011;32506;52.826;-1.192;2022-09-24T16:17:48;1.52;;;0.30;;
46755;SDS011;32506;52.826;-1.192;2022-09-24T16:20:14;0.70;;;0.20;;
46755;SDS011;32506;52.826;-1.192;2022-09-24T16:22:40;1.17;;;0.35;;
46755;SDS011;32506;52.826;-1.192;2022-09-24T16:25:06;2.33;;;0.30;;
46755;SDS011;32506;52.826;-1.192;2022-09-24T16:27:31;2.20;;;0.30;;
46755;SDS011;32506;52.826;-1.192;2022-09-24T16:29:59;2.75;;;0.40;;
46755;SDS011;32506;52.826;-1.192;2022-09-24T16:32:25;2.00;;;0.20;;
46755;SDS011;32506;52.826;-1.192;2022-09-24T16:34:50;1.45;;;0.30;;
46755;SDS011;32506;52.826;-1.192;2022-09-24T16:37:18;1.70;;;0.50;;
46755;SDS011;32506;52.826;-1.192;2022-09-24T16:39:44;1.38;;;0.40;;
46755;SDS011;32506;52.826;-1.192;2022-09-24T16:42:10;2.20;;;0.50;;
46755;SDS011;32506;52.826;-1.192;2022-09-24T16:44:35;1.55;;;0.50;;
46755;SDS011;32506;52.826;-1.192;2022-09-24T16:47:01;1.98;;;0.30;;
46755;SDS011;32506;52.826;-1.192;2022-09-24T16:49:27;2.30;;;0.40;;
46755;SDS011;32506;52.826;-1.192;2022-09-24T16:51:52;3.63;;;0.70;;
46755;SDS011;32506;52.826;-1.192;2022-09-24T16:54:18;2.13;;;0.30;;
46755;SDS011;32506;52.826;-1.192;2022-09-24T16:56:46;2.88;;;0.45;;